createdAt,value
2018-07-16T00:00:40.036Z,1.90
2018-07-16T00:05:34.688Z,1.50
2018-07-16T00:10:29.282Z,1.70
2018-07-16T00:15:23.808Z,1.70
2018-07-16T00:20:18.648Z,1.50
2018-07-16T00:25:13.267Z,1.70
2018-07-16T00:30:08.073Z,1.70
2018-07-16T00:35:02.610Z,1.67
2018-07-16T00:39:57.278Z,1.60
2018-07-16T00:44:51.965Z,1.40
2018-07-16T00:49:46.921Z,1.60
2018-07-16T00:54:42.108Z,1.70
2018-07-16T00:59:36.467Z,1.47
2018-07-16T01:04:30.972Z,1.57
2018-07-16T01:09:25.572Z,1.60
2018-07-16T01:14:21.414Z,1.40
2018-07-16T01:19:16.209Z,1.60
2018-07-16T01:24:11.453Z,1.73
2018-07-16T01:29:06.012Z,1.40
2018-07-16T01:34:00.551Z,1.50
2018-07-16T01:38:55.149Z,1.73
2018-07-16T01:43:49.739Z,1.40
2018-07-16T01:48:44.363Z,1.70
2018-07-16T01:53:38.871Z,1.50
2018-07-16T01:58:33.365Z,1.83
2018-07-16T02:03:30.557Z,1.80
2018-07-16T02:08:27.242Z,1.67
2018-07-16T02:13:22.192Z,1.50
2018-07-16T02:18:16.886Z,1.80
2018-07-16T02:23:11.164Z,1.80
2018-07-16T02:28:05.923Z,1.93
2018-07-16T02:33:00.499Z,1.60
2018-07-16T02:37:55.513Z,1.70
2018-07-16T02:42:50.071Z,1.90
2018-07-16T02:47:44.684Z,1.73
2018-07-16T02:52:40.041Z,1.50
2018-07-16T02:57:34.706Z,1.70
2018-07-16T03:02:29.190Z,1.90
2018-07-16T03:07:23.547Z,2.17
2018-07-16T03:12:18.185Z,1.80
2018-07-16T03:17:12.965Z,1.77
2018-07-16T03:22:08.027Z,1.77
2018-07-16T03:27:02.913Z,2.00
2018-07-16T03:31:57.588Z,1.80
2018-07-16T03:36:52.086Z,1.83
2018-07-16T03:41:46.573Z,1.80
2018-07-16T03:46:41.246Z,1.70
2018-07-16T03:51:35.762Z,2.40
2018-07-16T03:56:30.272Z,2.43
2018-07-16T04:01:24.506Z,1.97
2018-07-16T04:06:19.118Z,2.00
2018-07-16T04:11:13.674Z,2.40
2018-07-16T04:16:08.350Z,2.00
2018-07-16T04:21:03.024Z,1.77
2018-07-16T04:25:57.737Z,2.10
2018-07-16T04:30:52.309Z,2.20
2018-07-16T04:35:47.131Z,2.00
2018-07-16T04:40:41.596Z,2.30
2018-07-16T04:45:36.046Z,2.40
2018-07-16T04:50:31.292Z,2.20
2018-07-16T04:55:26.160Z,2.07
2018-07-16T05:00:20.687Z,2.30
2018-07-16T05:05:15.412Z,1.90
2018-07-16T05:10:11.036Z,2.00
2018-07-16T05:15:05.783Z,2.30
2018-07-16T05:20:00.458Z,2.60
2018-07-16T05:24:55.687Z,2.93
2018-07-16T05:29:49.940Z,2.50
2018-07-16T05:34:44.409Z,2.40
2018-07-16T05:39:38.910Z,2.40
2018-07-16T05:44:33.682Z,2.00
2018-07-16T05:49:28.453Z,1.83
2018-07-16T05:54:23.295Z,1.53
2018-07-16T05:59:18.269Z,1.70
2018-07-16T06:04:13.338Z,2.63
2018-07-16T06:09:08.358Z,1.97
2018-07-16T06:14:03.132Z,2.13
2018-07-16T06:18:58.466Z,1.67
2018-07-16T06:23:54.446Z,1.70
2018-07-16T06:28:49.394Z,1.50
2018-07-16T06:33:44.372Z,1.70
2018-07-16T06:38:39.124Z,1.60
2018-07-16T06:43:33.860Z,1.60
2018-07-16T06:48:28.391Z,1.70
2018-07-16T06:53:23.462Z,1.87
2018-07-16T06:58:18.319Z,1.60
2018-07-16T07:03:13.119Z,2.07
2018-07-16T07:08:08.119Z,1.73
2018-07-16T07:13:03.121Z,2.20
2018-07-16T07:17:57.974Z,2.37
2018-07-16T07:22:53.453Z,2.00
2018-07-16T07:27:48.439Z,2.30
2018-07-16T07:32:43.075Z,2.30
2018-07-16T07:37:37.955Z,2.17
2018-07-16T07:42:32.949Z,2.10
2018-07-16T07:47:27.642Z,2.10
2018-07-16T07:52:22.430Z,2.10
2018-07-16T07:57:17.465Z,2.27
2018-07-16T08:02:12.338Z,1.80
2018-07-16T08:07:14.031Z,2.00
2018-07-16T08:12:09.768Z,3.50
2018-07-16T08:17:05.057Z,2.00
2018-07-16T08:21:59.990Z,1.80
2018-07-16T08:26:55.156Z,2.00
2018-07-16T08:31:50.202Z,2.00
2018-07-16T08:36:45.452Z,1.73
2018-07-16T08:41:40.600Z,2.03
2018-07-16T08:46:35.582Z,1.70
2018-07-16T08:51:30.374Z,1.77
2018-07-16T08:56:25.346Z,2.00
2018-07-16T09:01:20.387Z,1.77
2018-07-16T09:06:15.326Z,2.10
2018-07-16T09:11:10.179Z,2.00
2018-07-16T09:16:05.050Z,1.93
2018-07-16T09:20:59.573Z,2.00
2018-07-16T09:25:54.483Z,2.17
2018-07-16T09:30:49.397Z,2.07
2018-07-16T09:35:44.317Z,2.00
2018-07-16T09:40:39.139Z,2.10
2018-07-16T09:45:34.373Z,1.87
2018-07-16T09:50:29.434Z,1.70
2018-07-16T09:55:24.382Z,1.90
2018-07-16T10:00:24.965Z,2.10
2018-07-16T10:05:19.796Z,1.80
2018-07-16T10:10:14.941Z,1.80
2018-07-16T10:15:09.564Z,1.80
2018-07-16T10:20:04.185Z,1.60
2018-07-16T10:25:00.682Z,2.00
2018-07-16T10:29:55.779Z,1.60
2018-07-16T10:34:50.565Z,1.80
2018-07-16T10:39:45.831Z,1.90
2018-07-16T10:44:40.897Z,1.80
2018-07-16T10:49:35.490Z,1.90
2018-07-16T10:54:30.408Z,1.70
2018-07-16T10:59:25.301Z,2.23
2018-07-16T11:04:20.490Z,1.73
2018-07-16T11:09:15.216Z,2.00
2018-07-16T11:14:10.095Z,2.10
2018-07-16T11:19:05.028Z,2.00
2018-07-16T11:23:59.854Z,1.67
2018-07-16T11:28:54.614Z,2.20
2018-07-16T11:33:49.487Z,1.70
2018-07-16T11:38:44.516Z,1.47
2018-07-16T11:43:39.380Z,1.60
2018-07-16T11:48:34.265Z,1.60
2018-07-16T11:53:29.402Z,1.60
2018-07-16T11:58:24.046Z,1.40
2018-07-16T12:03:18.933Z,1.30
2018-07-16T12:08:14.790Z,1.30
2018-07-16T12:13:09.764Z,1.27
2018-07-16T12:18:04.325Z,1.33
2018-07-16T12:22:59.142Z,1.27
2018-07-16T12:27:54.580Z,1.10
2018-07-16T12:32:49.587Z,1.30
2018-07-16T12:37:44.279Z,1.13
2018-07-16T12:42:39.228Z,1.30
2018-07-16T12:47:33.969Z,1.30
2018-07-16T12:52:28.778Z,1.50
2018-07-16T12:57:24.177Z,1.40
2018-07-16T13:02:19.130Z,1.07
2018-07-16T13:07:14.267Z,1.20
2018-07-16T13:12:09.456Z,1.30
2018-07-16T13:17:04.548Z,1.70
2018-07-16T13:21:59.913Z,1.47
2018-07-16T13:26:54.704Z,1.60
2018-07-16T13:31:49.450Z,1.40
2018-07-16T13:36:44.173Z,1.20
2018-07-16T13:41:39.063Z,1.13
2018-07-16T13:46:34.550Z,1.30
2018-07-16T13:51:29.327Z,1.50
2018-07-16T13:56:24.242Z,1.23
2018-07-16T14:01:19.621Z,1.30
2018-07-16T14:06:14.330Z,1.43
2018-07-16T14:11:09.191Z,1.33
2018-07-16T14:16:03.969Z,1.40
2018-07-16T14:20:59.122Z,1.20
2018-07-16T14:25:53.938Z,1.20
2018-07-16T14:30:48.472Z,1.37
2018-07-16T14:35:43.459Z,1.23
2018-07-16T14:40:38.023Z,1.40
2018-07-16T14:45:33.016Z,1.27
2018-07-16T14:50:28.061Z,1.40
2018-07-16T14:55:22.986Z,1.60
2018-07-16T15:00:18.262Z,1.50
2018-07-16T15:05:13.057Z,1.10
2018-07-16T15:10:07.825Z,1.23
2018-07-16T15:15:03.154Z,1.00
2018-07-16T15:19:59.194Z,1.20
2018-07-16T15:24:54.425Z,1.20
2018-07-16T15:29:49.950Z,1.30
2018-07-16T15:34:45.304Z,1.17
2018-07-16T15:39:40.661Z,1.37
2018-07-16T15:44:36.117Z,1.60
2018-07-16T15:49:31.968Z,1.50
2018-07-16T15:54:27.800Z,1.60
2018-07-16T15:59:22.934Z,1.50
2018-07-16T16:04:18.036Z,1.40
2018-07-16T16:09:14.093Z,1.30
2018-07-16T16:14:10.308Z,1.33
2018-07-16T16:19:05.331Z,1.57
2018-07-16T16:24:00.211Z,1.80
2018-07-16T16:28:54.975Z,1.60
2018-07-16T16:33:49.957Z,1.33
2018-07-16T16:38:44.853Z,1.17
2018-07-16T16:43:40.392Z,1.23
2018-07-16T16:48:37.030Z,1.23
2018-07-16T16:53:35.625Z,1.30
2018-07-16T16:58:33.901Z,1.07
2018-07-16T17:03:37.901Z,1.40
2018-07-16T17:08:32.774Z,1.50
2018-07-16T17:13:27.549Z,1.63
2018-07-16T17:18:23.254Z,1.50
2018-07-16T17:23:18.036Z,1.40
2018-07-16T17:28:12.881Z,1.27
2018-07-16T17:33:07.800Z,1.40
2018-07-16T17:38:02.682Z,1.43
2018-07-16T17:42:57.638Z,1.37
2018-07-16T17:47:52.337Z,1.40
2018-07-16T17:52:47.472Z,1.57
2018-07-16T17:57:43.130Z,1.47
2018-07-16T18:02:38.341Z,1.30
2018-07-16T18:07:33.289Z,1.70
2018-07-16T18:12:29.969Z,1.80
2018-07-16T18:17:29.359Z,1.30
2018-07-16T18:22:25.359Z,1.50
2018-07-16T18:27:20.483Z,1.67
2018-07-16T18:32:15.722Z,1.57
2018-07-16T18:37:10.738Z,1.53
2018-07-16T18:42:06.007Z,1.40
2018-07-16T18:47:00.858Z,1.65
2018-07-16T18:51:57.201Z,1.90
2018-07-16T18:56:52.040Z,1.83
2018-07-16T19:01:46.857Z,2.00
2018-07-16T19:06:42.626Z,1.93
2018-07-16T19:11:37.816Z,1.60
2018-07-16T19:16:33.024Z,1.80
2018-07-16T19:21:29.670Z,1.90
2018-07-16T19:26:25.337Z,1.83
2018-07-16T19:31:20.198Z,1.90
2018-07-16T19:36:15.264Z,2.50
2018-07-16T19:41:10.614Z,2.60
2018-07-16T19:46:05.837Z,2.27
2018-07-16T19:51:01.554Z,2.33
2018-07-16T19:55:57.752Z,2.23
2018-07-16T20:00:54.517Z,2.50
2018-07-16T20:05:51.408Z,2.00
2018-07-16T20:10:47.591Z,2.30
2018-07-16T20:15:42.479Z,2.20
2018-07-16T20:20:51.060Z,2.20
2018-07-16T20:25:47.757Z,2.10
2018-07-16T20:30:43.352Z,2.10
2018-07-16T20:35:38.302Z,2.07
2018-07-16T20:40:33.047Z,2.00
2018-07-16T20:45:33.528Z,1.93
2018-07-16T20:50:30.151Z,1.87
2018-07-16T20:55:27.041Z,2.67
2018-07-16T21:00:23.147Z,2.00
2018-07-16T21:05:19.354Z,1.87
2018-07-16T21:10:15.238Z,2.30
2018-07-16T21:15:12.338Z,2.60
2018-07-16T21:20:09.532Z,2.20
2018-07-16T21:25:05.107Z,3.37
2018-07-16T21:30:04.094Z,2.83
2018-07-16T21:34:59.679Z,4.00
2018-07-16T21:39:54.430Z,3.27
2018-07-16T21:44:49.743Z,3.27
2018-07-16T21:49:45.491Z,2.20
2018-07-16T21:54:40.566Z,2.50
2018-07-16T21:59:35.385Z,2.30
2018-07-16T22:04:31.007Z,2.57
2018-07-16T22:09:27.783Z,2.70
2018-07-16T22:14:24.353Z,2.73
2018-07-16T22:19:19.531Z,2.80
2018-07-16T22:24:14.444Z,2.80
2018-07-16T22:29:08.992Z,2.70
2018-07-16T22:34:04.421Z,2.67
2018-07-16T22:38:59.816Z,2.60
2018-07-16T22:43:55.400Z,2.60
2018-07-16T22:48:50.476Z,2.97
2018-07-16T22:53:45.073Z,3.27
2018-07-16T22:58:39.894Z,3.40
2018-07-16T23:03:34.650Z,2.70
2018-07-16T23:08:29.770Z,2.87
2018-07-16T23:13:24.737Z,2.97
2018-07-16T23:18:19.708Z,2.87
2018-07-16T23:23:14.990Z,2.40
2018-07-16T23:28:09.839Z,2.83
2018-07-16T23:33:05.844Z,2.70
2018-07-16T23:38:00.452Z,2.67
2018-07-16T23:43:02.119Z,2.63
2018-07-16T23:47:56.864Z,2.00
2018-07-16T23:52:51.344Z,2.03
2018-07-16T23:57:46.660Z,2.13
